Accueil
METAR-TAF:

METAR-TAF

Aéroports :

Oceanside Municipal Airport

Oceanside, Californie, États-Unis

latitude: 33-13-05N, longitude: 117-21-05W, altitude: 9 m

Observation

Le bulletin a été fait il y a 43 minutes, à 14:52 UTC
Vent calme
Température 12°C
Humidité 94%
Pression 1016 hPa
Visibilité: 9.7 km
Quelques nuages à une hauteur de 2200 ft
Ciel couvert à une hauteur de 7000 ft
brume

METAR: KOKB 081452Z AUTO 00000KT 6SM BR FEW022 OVC070 12/11 A3000 RMK AO2 RAB08E48 SLP157 P0000 60000 T01170111 53010

Heure: 08:35 (15:35 UTC)


TAF: absent

Observations et prévisions météorologiques de plus de 4000 aéroports (messages METAR et TAF).

Les stations disponibles sont représentées par des disques jaunes et rouges sur la carte.

Passer la souris dessus pour voir le nom de la station.

Cliquer dessus pour voir les observations et prévisions météorologiques.

Pour changer de carte: cliquez sur les boutons verts avec une croix noire pour zoomer, sur le bouton vert avec un tiret pour effectuer un zoom arrière, ou sur les flèches vertes pour les cartes adjacentes.


METAR-TAF: